Time;durP1;ratioP1;P1;durP2;ratioP2;P2;SDS_P1;SDS_P2;PMS_P1;PMS_P2;Temp;Humidity;BMP_temperature;BMP_pressure;BME280_temperature;BME280_humidity;BME280_pressure;Samples;Min_cycle;Max_cycle;Signal;HPM_P1;HPM_P2
2023/06/14 00:00:46;;;;;;;1.30;0.70;;;16.50;69.80;;;;;;4999338;28;20042;-77
2023/06/14 00:03:17;;;;;;;1.23;0.90;;;16.40;71.20;;;;;;4998377;28;20053;-78
2023/06/14 00:05:46;;;;;;;1.20;0.82;;;16.30;72.90;;;;;;4998303;28;20466;-77
2023/06/14 00:08:13;;;;;;;2.03;1.10;;;16.20;75.20;;;;;;4969210;28;20125;-79
2023/06/14 00:10:41;;;;;;;1.70;1.02;;;16.00;72.90;;;;;;4977830;28;20474;-78
2023/06/14 00:13:09;;;;;;;1.35;0.90;;;16.00;75.00;;;;;;4997757;28;20058;-78
2023/06/14 00:15:36;;;;;;;1.30;0.90;;;15.80;74.30;;;;;;5000952;28;20257;-76
2023/06/14 00:18:02;;;;;;;1.30;0.80;;;15.80;75.00;;;;;;5001054;28;20593;-77
2023/06/14 00:20:33;;;;;;;1.55;0.93;;;15.80;76.80;;;;;;4980737;28;20129;-77
2023/06/14 00:23:00;;;;;;;1.10;0.77;;;15.70;75.50;;;;;;4984527;28;20053;-77
2023/06/14 00:25:27;;;;;;;1.70;0.90;;;15.70;76.70;;;;;;4980825;28;20532;-77
2023/06/14 00:27:56;;;;;;;1.70;0.93;;;15.60;74.00;;;;;;4966144;28;20053;-77
2023/06/14 00:30:23;;;;;;;1.48;0.80;;;15.60;75.30;;;;;;4984450;28;20050;-77
2023/06/14 00:32:51;;;;;;;1.33;0.80;;;15.60;76.80;;;;;;4984378;28;20473;-77
2023/06/14 00:35:18;;;;;;;1.27;0.90;;;15.60;77.20;;;;;;5001312;28;20060;-77
2023/06/14 00:37:45;;;;;;;1.98;1.13;;;15.60;75.80;;;;;;5002105;28;20645;-78
2023/06/14 00:40:11;;;;;;;2.15;1.23;;;15.50;76.80;;;;;;4999824;28;20107;-78
2023/06/14 00:42:39;;;;;;;1.85;1.17;;;15.40;76.80;;;;;;5001490;28;20050;-77
2023/06/14 00:45:06;;;;;;;1.02;0.90;;;15.30;77.40;;;;;;5000096;28;20600;-77
2023/06/14 00:47:35;;;;;;;2.13;1.23;;;15.20;76.30;;;;;;5000883;28;20058;-77
2023/06/14 00:50:02;;;;;;;1.55;1.00;;;15.10;76.40;;;;;;4999601;28;20058;-77
2023/06/14 00:52:29;;;;;;;1.88;1.42;;;15.10;76.30;;;;;;4968841;28;20147;-77
2023/06/14 00:54:56;;;;;;;2.20;1.27;;;15.10;77.30;;;;;;5000284;28;20054;-77
2023/06/14 00:57:23;;;;;;;1.60;1.13;;;15.10;77.10;;;;;;5000182;28;20042;-77
2023/06/14 00:59:50;;;;;;;2.40;1.08;;;15.10;77.50;;;;;;4999702;28;20046;-77
2023/06/14 01:02:18;;;;;;;1.60;1.08;;;15.10;77.20;;;;;;4982376;28;20049;-77
2023/06/14 01:04:47;;;;;;;2.47;1.05;;;15.00;77.80;;;;;;4997299;28;20159;-77
2023/06/14 01:07:48;;;;;;;1.77;1.00;;;14.90;79.20;;;;;;4982334;28;20061;-77
2023/06/14 01:10:32;;;;;;;1.45;0.98;;;14.70;80.20;;;;;;4999492;28;20042;-77
2023/06/14 01:13:02;;;;;;;1.77;1.13;;;14.60;80.90;;;;;;5000950;28;20084;-77
2023/06/14 01:15:31;;;;;;;1.58;0.95;;;14.60;81.20;;;;;;5000843;28;20128;-77
2023/06/14 01:18:02;;;;;;;1.70;0.88;;;14.60;81.70;;;;;;4984856;28;20112;-78
2023/06/14 01:20:32;;;;;;;1.33;0.90;;;14.60;82.00;;;;;;4999622;28;20414;-76
2023/06/14 01:22:59;;;;;;;1.67;1.08;;;14.60;83.20;;;;;;4984748;28;20046;-77
2023/06/14 01:25:26;;;;;;;2.17;1.38;;;14.60;84.20;;;;;;5000245;28;20084;-76
2023/06/14 01:28:00;;;;;;;1.98;1.10;;;14.50;85.10;;;;;;4984291;28;20105;-76
2023/06/14 01:30:27;;;;;;;2.03;1.05;;;14.40;85.70;;;;;;4999970;28;20481;-77
2023/06/14 01:32:54;;;;;;;1.52;0.93;;;14.30;87.90;;;;;;5001378;28;20107;-76
2023/06/14 01:35:22;;;;;;;1.73;1.10;;;14.30;88.60;;;;;;4986357;28;20050;-76
2023/06/14 01:37:49;;;;;;;1.08;0.93;;;14.30;89.10;;;;;;5004028;28;20619;-77
2023/06/14 01:40:16;;;;;;;1.27;1.00;;;14.20;90.60;;;;;;4988847;28;20104;-76
2023/06/14 01:42:43;;;;;;;2.05;1.20;;;14.10;91.60;;;;;;4991726;28;20049;-77
2023/06/14 01:45:10;;;;;;;1.35;0.85;;;14.10;92.00;;;;;;5006806;28;20153;-77
2023/06/14 01:47:37;;;;;;;1.67;0.80;;;14.10;92.50;;;;;;5006021;28;20077;-77
2023/06/14 01:50:04;;;;;;;4.25;0.95;;;14.10;93.00;;;;;;4988821;28;20042;-77
2023/06/14 01:52:31;;;;;;;1.50;0.90;;;14.10;93.10;;;;;;5007943;28;20053;-77
2023/06/14 01:54:58;;;;;;;1.55;0.90;;;14.00;93.40;;;;;;5005132;28;20100;-77
2023/06/14 01:57:26;;;;;;;1.60;0.85;;;13.90;93.60;;;;;;5005874;28;20066;-77
2023/06/14 01:59:53;;;;;;;2.20;1.02;;;13.90;93.70;;;;;;5005531;28;20050;-76
2023/06/14 02:02:20;;;;;;;2.30;1.20;;;13.90;93.80;;;;;;5006154;28;20085;-76
2023/06/14 02:04:47;;;;;;;1.10;0.80;;;13.90;94.40;;;;;;4989296;28;20077;-76
2023/06/14 02:07:14;;;;;;;1.60;0.75;;;13.90;94.60;;;;;;5004754;28;20054;-77
2023/06/14 02:09:41;;;;;;;1.55;0.73;;;13.90;94.90;;;;;;4989240;28;20532;-77
2023/06/14 02:12:08;;;;;;;1.13;0.95;;;13.90;95.50;;;;;;5005277;28;20117;-78
2023/06/14 02:14:35;;;;;;;1.60;0.77;;;13.80;96.00;;;;;;5005836;28;20053;-78
2023/06/14 02:17:02;;;;;;;1.40;0.88;;;13.70;96.80;;;;;;5004767;28;20045;-77
2023/06/14 02:19:29;;;;;;;1.80;0.95;;;13.60;97.70;;;;;;5006678;28;20080;-78
2023/06/14 02:21:56;;;;;;;2.85;1.20;;;13.60;98.20;;;;;;5004764;28;20100;-78
2023/06/14 02:24:23;;;;;;;1.23;0.85;;;13.60;98.70;;;;;;5000916;28;20730;-78
2023/06/14 02:26:50;;;;;;;1.42;0.80;;;13.60;99.10;;;;;;5005091;28;20065;-77
2023/06/14 02:29:17;;;;;;;1.23;0.95;;;13.60;99.40;;;;;;4988793;28;20050;-77
2023/06/14 02:31:44;;;;;;;1.20;0.80;;;13.50;99.90;;;;;;4988214;28;20062;-77
2023/06/14 02:34:11;;;;;;;1.27;0.85;;;13.50;99.90;;;;;;4985639;28;20053;-77
2023/06/14 02:36:41;;;;;;;1.02;0.80;;;13.50;99.90;;;;;;5005495;28;20100;-77
2023/06/14 02:39:11;;;;;;;1.98;0.90;;;13.60;99.90;;;;;;5004423;28;20045;-77
2023/06/14 02:41:38;;;;;;;2.28;1.20;;;13.60;99.90;;;;;;4989397;28;20085;-78
2023/06/14 02:44:06;;;;;;;2.25;1.20;;;13.60;99.90;;;;;;4972644;28;20640;-77
2023/06/14 02:46:33;;;;;;;1.15;0.60;;;13.50;99.90;;;;;;4972322;28;20120;-77
2023/06/14 02:49:00;;;;;;;1.42;1.15;;;13.50;99.90;;;;;;4988891;28;20042;-77
2023/06/14 02:51:27;;;;;;;2.15;0.90;;;13.50;99.90;;;;;;4987225;28;20057;-77
2023/06/14 02:53:53;;;;;;;1.83;1.00;;;13.50;99.90;;;;;;5004505;28;20046;-78
2023/06/14 02:56:22;;;;;;;1.35;0.80;;;13.40;99.90;;;;;;4988204;28;20065;-77
2023/06/14 02:58:49;;;;;;;2.90;0.80;;;13.40;99.90;;;;;;5004660;28;20061;-77
2023/06/14 03:01:16;;;;;;;3.50;1.10;;;13.40;99.90;;;;;;4987931;28;20038;-77
2023/06/14 03:03:43;;;;;;;1.00;0.75;;;13.30;99.90;;;;;;5004952;28;20061;-78
2023/06/14 03:06:12;;;;;;;1.95;0.88;;;13.40;99.90;;;;;;5003029;28;20058;-77
2023/06/14 03:08:43;;;;;;;1.38;0.80;;;13.30;99.90;;;;;;5005404;28;20089;-78
2023/06/14 03:11:10;;;;;;;1.65;0.85;;;13.40;99.90;;;;;;5005424;28;20052;-78
2023/06/14 03:13:38;;;;;;;2.13;1.00;;;13.40;99.90;;;;;;5005707;28;20076;-77
2023/06/14 03:16:05;;;;;;;0.77;0.70;;;13.40;99.90;;;;;;5003981;28;20400;-77
2023/06/14 03:18:35;;;;;;;1.08;0.80;;;13.40;99.90;;;;;;4987809;28;20097;-76
2023/06/14 03:21:02;;;;;;;1.92;1.05;;;13.40;99.90;;;;;;4988164;28;20046;-77
2023/06/14 03:23:29;;;;;;;1.77;1.00;;;13.40;99.90;;;;;;4971773;28;20073;-77
2023/06/14 03:25:56;;;;;;;1.70;0.80;;;13.40;99.90;;;;;;4987891;28;20136;-78
2023/06/14 03:28:23;;;;;;;1.52;0.82;;;13.40;99.90;;;;;;4987847;28;20104;-77
2023/06/14 03:30:50;;;;;;;1.83;1.25;;;13.30;99.90;;;;;;5004134;28;20084;-77
2023/06/14 03:33:17;;;;;;;1.63;0.77;;;13.30;99.90;;;;;;5004064;28;20112;-77
2023/06/14 03:35:44;;;;;;;1.40;0.70;;;13.30;99.90;;;;;;4986750;28;20046;-77
2023/06/14 03:38:11;;;;;;;1.48;0.80;;;13.30;99.90;;;;;;4987837;28;20104;-77
2023/06/14 03:40:37;;;;;;;1.40;0.85;;;13.30;99.90;;;;;;5004309;28;20058;-77
2023/06/14 03:43:04;;;;;;;1.13;0.70;;;13.40;99.90;;;;;;5005462;28;20056;-77
2023/06/14 03:45:31;;;;;;;1.15;0.73;;;13.30;99.90;;;;;;4987293;28;20125;-77
2023/06/14 03:48:00;;;;;;;1.02;0.80;;;13.30;99.90;;;;;;5003706;28;20049;-77
2023/06/14 03:50:28;;;;;;;2.72;0.88;;;13.30;99.90;;;;;;5002709;28;20481;-77
2023/06/14 03:52:54;;;;;;;0.95;0.80;;;13.30;99.90;;;;;;5005112;28;20401;-77
2023/06/14 03:55:25;;;;;;;2.05;1.00;;;13.30;99.90;;;;;;5003046;28;20053;-77
2023/06/14 03:58:05;;;;;;;1.70;0.80;;;13.30;99.90;;;;;;5003513;28;20045;-78
2023/06/14 04:00:32;;;;;;;2.03;1.38;;;13.30;99.90;;;;;;5003387;28;20049;-77
2023/06/14 04:02:58;;;;;;;1.60;1.20;;;13.30;99.90;;;;;;5003962;28;20054;-77
2023/06/14 04:05:26;;;;;;;1.67;1.10;;;13.20;99.90;;;;;;5002247;28;20050;-77
2023/06/14 04:07:55;;;;;;;1.63;0.90;;;13.20;99.90;;;;;;5003313;28;20505;-77
2023/06/14 04:10:22;;;;;;;1.50;0.82;;;13.20;99.90;;;;;;5002739;28;20054;-77
2023/06/14 04:12:49;;;;;;;1.60;1.10;;;13.20;99.90;;;;;;5003341;28;20160;-77
2023/06/14 04:15:16;;;;;;;2.47;1.17;;;13.10;99.90;;;;;;5003626;28;20072;-77
2023/06/14 04:17:47;;;;;;;2.22;1.05;;;13.20;99.90;;;;;;4998571;28;20427;-77
2023/06/14 04:20:14;;;;;;;1.77;0.98;;;13.20;99.90;;;;;;4969992;28;20056;-77
2023/06/14 04:22:43;;;;;;;1.00;0.73;;;13.20;99.90;;;;;;5005725;28;20038;-77
2023/06/14 04:25:09;;;;;;;1.52;0.90;;;13.20;99.90;;;;;;5002842;28;20052;-77
2023/06/14 04:27:37;;;;;;;1.00;0.80;;;13.30;99.90;;;;;;4987121;28;20050;-77
2023/06/14 04:30:05;;;;;;;1.10;0.90;;;13.30;99.90;;;;;;5003290;28;20052;-77
2023/06/14 04:32:34;;;;;;;2.55;1.30;;;13.30;99.90;;;;;;4988127;28;20450;-77
2023/06/14 04:35:04;;;;;;;2.03;1.00;;;13.30;99.90;;;;;;5003679;28;20046;-77
2023/06/14 04:37:30;;;;;;;1.92;1.20;;;13.30;99.90;;;;;;4989245;28;20053;-77
2023/06/14 04:39:57;;;;;;;1.73;0.95;;;13.30;99.90;;;;;;4981452;28;20057;-77
2023/06/14 04:42:25;;;;;;;1.98;1.10;;;13.30;99.90;;;;;;4997814;28;20524;-77
2023/06/14 04:44:55;;;;;;;2.08;1.55;;;13.30;99.90;;;;;;4964782;28;20393;-78
2023/06/14 04:47:22;;;;;;;2.00;1.45;;;13.40;99.90;;;;;;4996378;28;20096;-77
2023/06/14 04:49:50;;;;;;;3.67;1.10;;;13.40;99.90;;;;;;4958973;28;20045;-77
2023/06/14 04:52:17;;;;;;;1.70;1.02;;;13.50;99.90;;;;;;4996317;28;20076;-77
2023/06/14 04:54:44;;;;;;;1.33;0.90;;;13.50;99.90;;;;;;4980422;28;20076;-78
2023/06/14 04:57:16;;;;;;;2.40;1.20;;;13.60;99.90;;;;;;5000080;28;20046;-78
2023/06/14 04:59:44;;;;;;;2.30;1.25;;;13.50;99.90;;;;;;4996140;28;20133;-78
2023/06/14 05:02:11;;;;;;;2.42;1.45;;;13.50;99.90;;;;;;4979323;28;20213;-77
2023/06/14 05:04:39;;;;;;;2.72;1.48;;;13.50;99.90;;;;;;4978958;28;20060;-76
2023/06/14 05:07:08;;;;;;;2.33;1.33;;;13.60;99.90;;;;;;4995579;28;20145;-76
2023/06/14 05:09:35;;;;;;;2.00;1.45;;;13.60;99.90;;;;;;4994710;28;20604;-77
2023/06/14 05:12:03;;;;;;;1.50;1.10;;;13.60;99.90;;;;;;5000691;28;20511;-77
2023/06/14 05:14:29;;;;;;;1.17;0.82;;;13.70;99.90;;;;;;5001410;28;20049;-76
2023/06/14 05:16:57;;;;;;;1.67;1.05;;;13.70;99.90;;;;;;5001265;28;20586;-77
2023/06/14 05:19:24;;;;;;;2.47;1.25;;;13.80;99.90;;;;;;5001302;28;20204;-77
2023/06/14 05:21:50;;;;;;;2.08;1.15;;;13.80;99.90;;;;;;5000157;28;20042;-77
2023/06/14 05:24:17;;;;;;;2.45;1.17;;;13.80;99.90;;;;;;5000809;28;20046;-77
2023/06/14 05:26:44;;;;;;;1.77;1.23;;;13.90;99.90;;;;;;5000502;28;20129;-78
2023/06/14 05:29:11;;;;;;;2.22;1.63;;;13.90;99.90;;;;;;5002024;28;20060;-77
2023/06/14 05:31:38;;;;;;;2.75;1.35;;;14.00;99.90;;;;;;5001150;28;20057;-76
2023/06/14 05:34:06;;;;;;;1.77;1.30;;;14.10;99.90;;;;;;4985903;28;20065;-77
2023/06/14 05:36:33;;;;;;;3.13;1.30;;;14.10;99.90;;;;;;5002993;28;20155;-77
2023/06/14 05:39:02;;;;;;;2.33;1.40;;;14.10;99.90;;;;;;5006237;28;20053;-76
2023/06/14 05:41:29;;;;;;;3.17;1.35;;;14.20;99.90;;;;;;5005324;28;20049;-77
2023/06/14 05:43:56;;;;;;;2.55;1.48;;;14.30;99.90;;;;;;5005127;28;20534;-77
2023/06/14 05:46:26;;;;;;;2.25;1.73;;;14.40;99.90;;;;;;5005815;28;20511;-77
2023/06/14 05:48:53;;;;;;;4.20;1.60;;;14.50;99.90;;;;;;4989180;28;20054;-76
2023/06/14 05:51:21;;;;;;;1.95;1.15;;;14.60;99.90;;;;;;5002124;28;20113;-77
2023/06/14 05:53:51;;;;;;;3.58;1.67;;;14.60;99.90;;;;;;5000937;28;20108;-77
2023/06/14 05:56:18;;;;;;;2.55;1.55;;;14.70;99.90;;;;;;5002101;28;20046;-77
2023/06/14 05:58:45;;;;;;;3.13;1.60;;;14.80;99.90;;;;;;5005044;28;20461;-77
2023/06/14 06:01:13;;;;;;;2.25;1.42;;;14.90;99.90;;;;;;5004074;28;20175;-77
2023/06/14 06:03:40;;;;;;;2.95;1.20;;;14.90;99.90;;;;;;5006079;28;20066;-78
2023/06/14 06:06:08;;;;;;;3.33;1.40;;;15.00;99.90;;;;;;5019782;28;20060;-77
2023/06/14 06:08:35;;;;;;;2.13;1.40;;;15.00;99.90;;;;;;5004052;28;20061;-76
2023/06/14 06:11:01;;;;;;;1.38;1.10;;;15.10;99.90;;;;;;4998903;28;20365;-76
2023/06/14 06:13:28;;;;;;;2.65;1.13;;;15.20;99.90;;;;;;4999602;28;20050;-76
2023/06/14 06:15:56;;;;;;;4.15;1.55;;;15.30;99.90;;;;;;4993923;28;20307;-77
2023/06/14 06:18:23;;;;;;;4.10;1.77;;;15.30;99.90;;;;;;4973006;28;20062;-77
2023/06/14 06:20:50;;;;;;;3.08;1.98;;;15.30;99.90;;;;;;4989508;28;20054;-78
2023/06/14 06:23:16;;;;;;;4.47;2.05;;;15.40;99.90;;;;;;5000035;28;20084;-77
2023/06/14 06:25:43;;;;;;;2.30;1.52;;;15.40;99.90;;;;;;4982390;28;20450;-78
2023/06/14 06:28:10;;;;;;;2.42;1.50;;;15.50;99.90;;;;;;4997298;28;20046;-77
2023/06/14 06:30:38;;;;;;;2.58;1.85;;;15.60;99.90;;;;;;5000871;28;20045;-78
2023/06/14 06:33:05;;;;;;;3.65;1.83;;;15.70;99.90;;;;;;4994623;28;20509;-78
2023/06/14 06:35:33;;;;;;;2.72;1.75;;;15.70;99.90;;;;;;5001025;28;20233;-78
2023/06/14 06:38:00;;;;;;;4.05;1.85;;;15.80;99.90;;;;;;4984125;28;20073;-78
2023/06/14 06:40:27;;;;;;;3.45;2.28;;;15.70;99.90;;;;;;4980650;28;20171;-77
2023/06/14 06:42:54;;;;;;;2.95;2.20;;;15.80;99.90;;;;;;4996837;28;20401;-77
2023/06/14 06:45:23;;;;;;;3.63;2.05;;;15.80;99.90;;;;;;5001341;28;20054;-78
2023/06/14 06:47:51;;;;;;;3.05;1.88;;;15.90;99.90;;;;;;4999912;28;20052;-77
2023/06/14 06:50:19;;;;;;;2.20;1.60;;;15.90;99.90;;;;;;4997458;28;20049;-78
2023/06/14 06:52:46;;;;;;;3.85;2.05;;;16.00;99.90;;;;;;4984201;28;20160;-77
2023/06/14 06:55:14;;;;;;;4.10;2.20;;;16.10;99.90;;;;;;4982629;28;20445;-78
2023/06/14 06:57:42;;;;;;;2.35;1.40;;;16.10;99.90;;;;;;4960873;28;20086;-77
2023/06/14 07:00:09;;;;;;;2.92;1.80;;;16.20;99.90;;;;;;5001759;28;20574;-77
2023/06/14 07:02:36;;;;;;;2.00;1.50;;;16.30;99.90;;;;;;4996652;28;20141;-78
2023/06/14 07:05:04;;;;;;;2.08;1.40;;;16.50;99.90;;;;;;4996280;28;20081;-78
2023/06/14 07:07:31;;;;;;;3.35;2.00;;;16.50;99.90;;;;;;4971781;28;20570;-77
2023/06/14 07:09:58;;;;;;;3.75;1.80;;;16.60;99.90;;;;;;5010708;28;20054;-77
2023/06/14 07:12:25;;;;;;;2.83;2.00;;;16.70;99.90;;;;;;5008655;28;20046;-77
2023/06/14 07:14:52;;;;;;;3.22;1.95;;;16.80;99.90;;;;;;4996011;28;20069;-78
2023/06/14 07:17:19;;;;;;;5.88;2.10;;;16.80;99.90;;;;;;4998809;28;20473;-78
2023/06/14 07:19:46;;;;;;;3.30;1.95;;;16.90;99.90;;;;;;4995152;28;20046;-78
2023/06/14 07:22:13;;;;;;;3.13;1.98;;;16.90;99.90;;;;;;5002471;28;20065;-77
2023/06/14 07:24:40;;;;;;;2.55;1.70;;;17.00;99.90;;;;;;5004390;28;20464;-77
2023/06/14 07:27:07;;;;;;;2.88;1.90;;;17.10;99.90;;;;;;4959973;28;20136;-77
2023/06/14 07:29:34;;;;;;;3.33;2.20;;;17.20;99.90;;;;;;4993169;28;20049;-77
2023/06/14 07:32:01;;;;;;;3.60;2.28;;;17.30;99.90;;;;;;5002415;28;20389;-77
2023/06/14 07:34:28;;;;;;;3.35;2.20;;;17.40;99.90;;;;;;5003080;28;20112;-77
2023/06/14 07:36:55;;;;;;;2.83;1.80;;;17.50;99.90;;;;;;5001289;28;20081;-77
2023/06/14 07:39:22;;;;;;;5.20;1.90;;;17.60;99.90;;;;;;5002548;28;20065;-76
2023/06/14 07:41:49;;;;;;;3.58;2.15;;;17.60;99.90;;;;;;5002419;28;20103;-77
2023/06/14 07:44:16;;;;;;;3.67;2.58;;;17.60;99.90;;;;;;5003475;28;20165;-77
2023/06/14 07:46:43;;;;;;;3.72;2.10;;;17.60;99.90;;;;;;5002249;28;20252;-77
2023/06/14 07:49:12;;;;;;;3.10;2.05;;;17.70;99.90;;;;;;5001717;28;20616;-77
2023/06/14 07:51:39;;;;;;;4.97;2.33;;;17.80;99.90;;;;;;4998340;28;20129;-77
2023/06/14 07:54:08;;;;;;;3.25;1.90;;;17.90;99.90;;;;;;4999104;28;20121;-77
2023/06/14 07:56:35;;;;;;;4.05;2.45;;;18.00;99.90;;;;;;4999762;28;20054;-77
2023/06/14 07:59:02;;;;;;;2.80;2.15;;;18.10;99.90;;;;;;5000107;28;20049;-77
2023/06/14 08:01:29;;;;;;;3.85;2.15;;;18.20;99.90;;;;;;5002458;28;20104;-77
2023/06/14 08:03:56;;;;;;;6.68;2.40;;;18.30;99.90;;;;;;5002242;28;20161;-77
2023/06/14 08:06:23;;;;;;;3.85;2.30;;;18.40;99.90;;;;;;4982833;28;20053;-77
2023/06/14 08:08:49;;;;;;;3.78;2.35;;;18.50;99.90;;;;;;4998095;28;20079;-77
2023/06/14 08:11:16;;;;;;;4.03;2.20;;;18.70;99.90;;;;;;5000165;28;20111;-77
2023/06/14 08:13:43;;;;;;;3.80;2.58;;;18.80;99.90;;;;;;5002359;28;20156;-77
2023/06/14 08:16:10;;;;;;;3.05;2.30;;;18.90;99.90;;;;;;5001326;28;20046;-77
2023/06/14 08:18:37;;;;;;;3.85;2.97;;;19.00;99.90;;;;;;5002606;28;20050;-77
2023/06/14 08:21:04;;;;;;;3.00;2.40;;;19.00;99.90;;;;;;4998632;28;20046;-77
2023/06/14 08:23:31;;;;;;;2.55;2.10;;;19.20;99.90;;;;;;5000409;28;20195;-77
2023/06/14 08:25:58;;;;;;;3.40;2.25;;;19.30;99.90;;;;;;4998629;28;20054;-77
2023/06/14 08:28:25;;;;;;;5.28;2.38;;;19.40;99.90;;;;;;4999499;28;20448;-77
2023/06/14 08:30:51;;;;;;;3.13;1.85;;;19.60;99.90;;;;;;5001583;28;20084;-77
2023/06/14 08:33:18;;;;;;;3.22;2.17;;;19.70;99.90;;;;;;5001745;28;20054;-77
2023/06/14 08:35:45;;;;;;;2.42;1.60;;;19.80;99.90;;;;;;5002226;28;20054;-77
2023/06/14 08:38:12;;;;;;;2.78;1.77;;;20.00;99.90;;;;;;5003247;28;20046;-76
2023/06/14 08:40:39;;;;;;;2.83;1.88;;;20.00;99.90;;;;;;5000722;28;20168;-77
2023/06/14 08:43:07;;;;;;;4.07;1.65;;;20.10;99.90;;;;;;4999720;28;20057;-78
2023/06/14 08:45:33;;;;;;;2.85;1.70;;;20.20;99.90;;;;;;4978401;28;20058;-77
2023/06/14 08:48:01;;;;;;;3.67;2.15;;;20.40;99.90;;;;;;4996201;28;20100;-77
2023/06/14 08:50:31;;;;;;;5.03;2.88;;;20.40;99.90;;;;;;5002711;28;20054;-77
2023/06/14 08:53:02;;;;;;;3.17;2.13;;;20.40;99.90;;;;;;5006024;28;20050;-78
2023/06/14 08:55:30;;;;;;;2.55;1.67;;;20.50;99.90;;;;;;5003865;28;20501;-78
2023/06/14 08:58:03;;;;;;;3.25;2.60;;;20.60;99.90;;;;;;4971482;28;20504;-77
2023/06/14 09:00:30;;;;;;;3.20;2.20;;;20.70;99.90;;;;;;4996849;28;20159;-77
2023/06/14 09:02:57;;;;;;;3.20;2.20;;;20.90;99.90;;;;;;4994677;28;20126;-77
2023/06/14 09:05:26;;;;;;;3.72;2.28;;;21.00;99.90;;;;;;5004307;28;20057;-77
2023/06/14 09:07:54;;;;;;;4.30;1.88;;;21.10;99.90;;;;;;5005455;28;20564;-77
2023/06/14 09:10:21;;;;;;;3.05;2.10;;;21.20;99.90;;;;;;4986351;28;20058;-77
2023/06/14 09:12:48;;;;;;;3.58;2.00;;;21.30;99.90;;;;;;5002121;28;20054;-77
2023/06/14 09:15:16;;;;;;;3.17;2.10;;;21.30;99.90;;;;;;5002948;28;20053;-77
2023/06/14 09:17:43;;;;;;;3.40;1.90;;;21.30;99.90;;;;;;5002187;28;20152;-76
2023/06/14 09:20:10;;;;;;;2.80;1.80;;;21.50;99.90;;;;;;5001850;28;20139;-77
2023/06/14 09:22:38;;;;;;;2.42;1.85;;;21.60;99.90;;;;;;5004417;28;20417;-77
2023/06/14 09:25:05;;;;;;;2.55;2.00;;;21.70;99.90;;;;;;4985176;28;20452;-77
2023/06/14 09:27:32;;;;;;;4.43;2.85;;;21.70;99.90;;;;;;4986097;28;20045;-77
2023/06/14 09:30:03;;;;;;;2.75;2.20;;;21.80;99.90;;;;;;5004421;28;20111;-77
2023/06/14 09:32:30;;;;;;;6.28;2.80;;;21.90;99.90;;;;;;5003332;28;20060;-77
2023/06/14 09:34:57;;;;;;;3.88;2.40;;;22.10;99.90;;;;;;5004991;28;20146;-77
2023/06/14 09:37:31;;;;;;;3.85;2.40;;;22.20;99.90;;;;;;5009611;28;20279;-78
2023/06/14 09:39:58;;;;;;;3.70;2.38;;;22.10;99.90;;;;;;4986397;28;20045;-78
2023/06/14 09:42:25;;;;;;;4.13;2.72;;;22.20;99.90;;;;;;4994164;28;20141;-78
2023/06/14 09:44:54;;;;;;;3.83;2.60;;;22.40;99.90;;;;;;5002225;28;20072;-77
2023/06/14 09:47:22;;;;;;;5.40;3.10;;;22.60;99.90;;;;;;4992030;28;20104;-77
2023/06/14 09:49:50;;;;;;;5.38;2.70;;;22.60;99.90;;;;;;4997477;28;20135;-77
2023/06/14 09:52:18;;;;;;;3.08;2.38;;;22.70;99.90;;;;;;5003855;28;20049;-77
2023/06/14 09:54:52;;;;;;;3.92;2.95;;;22.90;99.90;;;;;;4993085;28;20108;-77
2023/06/14 09:57:23;;;;;;;4.15;2.50;;;22.90;99.90;;;;;;4983636;28;20042;-77
2023/06/14 09:59:53;;;;;;;4.32;2.28;;;23.10;99.90;;;;;;4985940;28;20081;-76
2023/06/14 10:02:34;;;;;;;6.00;2.80;;;23.20;99.90;;;;;;4974577;28;20099;-76
2023/06/14 10:05:11;;;;;;;2.78;2.20;;;23.30;99.80;;;;;;5003633;28;20138;-75
2023/06/14 10:07:46;;;;;;;5.30;2.35;;;23.30;99.10;;;;;;5003075;28;20674;-76
2023/06/14 10:10:13;;;;;;;3.45;2.10;;;23.40;98.50;;;;;;4998371;28;20054;-76
2023/06/14 10:12:41;;;;;;;4.00;2.60;;;23.50;99.20;;;;;;4964795;28;20566;-91
2023/06/14 10:15:09;;;;;;;2.72;1.70;;;23.60;97.80;;;;;;5004105;28;20054;-78
2023/06/14 10:17:55;;;;;;;2.63;1.85;;;23.80;98.10;;;;;;5003551;28;20159;-78
2023/06/14 10:20:51;;;;;;;2.92;2.20;;;24.10;97.90;;;;;;5001254;28;20169;-77
2023/06/14 10:23:20;;;;;;;3.30;2.08;;;24.30;97.80;;;;;;4994937;28;20129;-80
2023/06/14 10:25:50;;;;;;;4.80;2.30;;;24.50;97.50;;;;;;4996913;28;20057;-80
2023/06/14 10:28:18;;;;;;;4.35;2.50;;;24.60;96.60;;;;;;5013926;28;20053;-79
2023/06/14 10:31:11;;;;;;;3.15;2.63;;;24.80;97.30;;;;;;5001263;28;20050;-80
2023/06/14 10:33:54;;;;;;;3.30;2.17;;;24.80;95.70;;;;;;5001227;28;20665;-80
2023/06/14 10:36:30;;;;;;;2.65;1.92;;;25.00;95.80;;;;;;4983322;28;20058;-79
2023/06/14 10:39:17;;;;;;;3.25;2.30;;;25.20;95.80;;;;;;4973224;28;20049;-79
2023/06/14 10:41:54;;;;;;;3.15;2.45;;;25.40;95.30;;;;;;5005054;28;20065;-80
2023/06/14 10:44:21;;;;;;;4.00;2.70;;;25.50;94.20;;;;;;5004528;28;20131;-80
2023/06/14 10:46:49;;;;;;;2.95;2.00;;;25.60;94.30;;;;;;5005366;28;20053;-81
2023/06/14 10:49:19;;;;;;;2.63;1.77;;;25.70;94.30;;;;;;5001306;28;20408;-80
2023/06/14 10:51:50;;;;;;;3.42;2.45;;;25.90;94.00;;;;;;5001379;28;20061;-81
2023/06/14 10:54:17;;;;;;;2.83;2.15;;;26.20;94.00;;;;;;5003709;28;20390;-81
2023/06/14 10:56:48;;;;;;;3.15;2.30;;;26.20;93.30;;;;;;5005010;28;20050;-81
2023/06/14 10:59:15;;;;;;;2.88;2.47;;;26.30;92.40;;;;;;5005024;28;20645;-81
2023/06/14 11:02:19;;;;;;;5.18;2.65;;;26.40;93.10;;;;;;5004854;28;20082;-81
2023/06/14 11:04:47;;;;;;;4.03;2.47;;;26.40;92.80;;;;;;4988672;28;20042;-81
2023/06/14 11:08:12;;;;;;;3.78;2.53;;;26.50;92.70;;;;;;5003006;28;20080;-80
2023/06/14 11:10:40;;;;;;;3.80;2.35;;;26.60;93.30;;;;;;4962040;28;20157;-80
2023/06/14 11:13:07;;;;;;;2.30;1.83;;;26.80;92.70;;;;;;4962282;28;20191;-80
2023/06/14 11:15:35;;;;;;;3.47;2.47;;;27.00;92.10;;;;;;4957026;28;20050;-80
2023/06/14 11:18:06;;;;;;;3.45;2.25;;;27.00;91.60;;;;;;4983250;28;20073;-79
2023/06/14 11:20:34;;;;;;;3.97;3.15;;;27.20;92.20;;;;;;5002368;28;20053;-80
2023/06/14 11:23:01;;;;;;;2.90;2.03;;;27.40;90.90;;;;;;4984235;28;20050;-80
2023/06/14 11:25:28;;;;;;;3.30;2.50;;;27.60;91.60;;;;;;4999182;28;20586;-79
2023/06/14 11:27:55;;;;;;;2.88;2.58;;;27.70;90.70;;;;;;4999970;28;20103;-80
2023/06/14 11:30:22;;;;;;;3.55;2.88;;;27.90;90.10;;;;;;5000128;28;20057;-80
2023/06/14 11:32:50;;;;;;;3.63;2.90;;;28.00;89.70;;;;;;5001746;28;20058;-80
2023/06/14 11:35:17;;;;;;;3.45;2.60;;;28.20;90.30;;;;;;5001785;28;20064;-80
2023/06/14 11:37:45;;;;;;;5.43;3.08;;;28.50;89.80;;;;;;5003085;28;20065;-87
2023/06/14 11:40:12;;;;;;;3.45;2.45;;;28.50;89.20;;;;;;5004120;28;20050;-79
2023/06/14 11:42:40;;;;;;;3.88;2.80;;;28.80;89.70;;;;;;4982240;28;20060;-79
2023/06/14 11:45:11;;;;;;;5.35;2.78;;;28.80;90.00;;;;;;5002608;28;20145;-79
2023/06/14 11:47:39;;;;;;;2.50;2.20;;;29.00;89.40;;;;;;5002959;28;20054;-79
2023/06/14 11:50:08;;;;;;;2.78;2.42;;;29.50;89.30;;;;;;5001454;28;20127;-79
2023/06/14 11:52:36;;;;;;;4.20;2.60;;;29.90;87.70;;;;;;4987209;28;20085;-79
2023/06/14 11:55:06;;;;;;;4.13;2.20;;;29.80;87.50;;;;;;4981545;28;20047;-79
2023/06/14 11:57:36;;;;;;;2.92;2.40;;;29.60;86.40;;;;;;5002085;28;20052;-80
2023/06/14 12:00:07;;;;;;;2.97;1.92;;;29.80;86.70;;;;;;5001917;28;20774;-79
2023/06/14 12:02:34;;;;;;;3.45;2.20;;;30.10;86.70;;;;;;4986836;28;20401;-79
2023/06/14 12:05:05;;;;;;;3.38;2.30;;;30.20;86.70;;;;;;5000271;28;20520;-78
2023/06/14 12:07:32;;;;;;;4.15;2.40;;;30.20;85.50;;;;;;5003281;28;20096;-78
2023/06/14 12:09:59;;;;;;;4.72;2.40;;;30.40;84.30;;;;;;4999707;28;20058;-79
2023/06/14 12:12:26;;;;;;;3.70;2.20;;;30.40;85.00;;;;;;5000497;28;20054;-79
2023/06/14 12:14:56;;;;;;;3.72;1.95;;;30.50;84.40;;;;;;5001515;28;20119;-79
2023/06/14 12:17:23;;;;;;;4.07;2.70;;;30.90;83.40;;;;;;5004426;28;20057;-79
2023/06/14 12:19:50;;;;;;;2.15;1.90;;;31.00;84.90;;;;;;5001778;28;20042;-79
2023/06/14 12:22:17;;;;;;;2.70;2.33;;;31.20;82.30;;;;;;5003198;28;20064;-78
2023/06/14 12:24:44;;;;;;;5.18;2.78;;;31.10;81.60;;;;;;4997714;28;20096;-79
2023/06/14 12:27:19;;;;;;;4.97;2.03;;;31.00;81.60;;;;;;4998839;28;20049;-79
2023/06/14 12:29:46;;;;;;;2.45;2.22;;;31.40;82.00;;;;;;5001945;28;20104;-79
2023/06/14 12:32:13;;;;;;;3.63;2.35;;;31.40;82.20;;;;;;4985296;28;20057;-79
2023/06/14 12:34:41;;;;;;;2.63;2.03;;;31.70;82.90;;;;;;5002376;28;20112;-79
2023/06/14 12:37:08;;;;;;;4.15;2.60;;;31.80;77.50;;;;;;4983106;28;20487;-80
2023/06/14 12:39:35;;;;;;;2.10;1.90;;;31.70;77.40;;;;;;4996511;28;20145;-80
2023/06/14 12:42:04;;;;;;;2.55;1.95;;;31.70;77.00;;;;;;4999457;28;20053;-80
2023/06/14 12:44:33;;;;;;;2.22;2.00;;;31.80;75.90;;;;;;4986751;28;20058;-79
2023/06/14 12:47:01;;;;;;;2.67;2.20;;;32.00;76.20;;;;;;4986487;28;20145;-79
2023/06/14 12:49:27;;;;;;;2.55;1.95;;;32.30;75.10;;;;;;5001506;28;20060;-79
2023/06/14 12:51:54;;;;;;;2.55;2.35;;;32.40;75.70;;;;;;5001080;28;20057;-79
2023/06/14 12:54:25;;;;;;;3.33;2.22;;;32.60;74.60;;;;;;4999953;28;20081;-79